sensor_id;sensor_type;location;lat;lon;timestamp;P1;durP1;ratioP1;P2;durP2;ratioP2
1134;SDS011;556;53.550;10.048;2022-10-17T00:00:14;5.23;;;5.00;;
1134;SDS011;556;53.550;10.048;2022-10-17T00:02:41;5.33;;;5.13;;
1134;SDS011;556;53.550;10.048;2022-10-17T00:05:09;4.40;;;4.30;;
1134;SDS011;556;53.550;10.048;2022-10-17T00:07:37;5.23;;;5.03;;
1134;SDS011;556;53.550;10.048;2022-10-17T00:10:04;4.70;;;4.50;;
1134;SDS011;556;53.550;10.048;2022-10-17T00:12:33;5.00;;;4.60;;
1134;SDS011;556;53.550;10.048;2022-10-17T00:15:01;4.57;;;4.37;;
1134;SDS011;556;53.550;10.048;2022-10-17T00:17:30;4.70;;;4.40;;
1134;SDS011;556;53.550;10.048;2022-10-17T00:19:57;4.80;;;4.50;;
1134;SDS011;556;53.550;10.048;2022-10-17T00:22:25;6.60;;;4.83;;
1134;SDS011;556;53.550;10.048;2022-10-17T00:24:53;4.63;;;4.43;;
1134;SDS011;556;53.550;10.048;2022-10-17T00:27:20;3.93;;;3.83;;
1134;SDS011;556;53.550;10.048;2022-10-17T00:29:47;5.00;;;4.70;;
1134;SDS011;556;53.550;10.048;2022-10-17T00:32:15;4.10;;;3.80;;
1134;SDS011;556;53.550;10.048;2022-10-17T00:34:42;5.30;;;4.60;;
1134;SDS011;556;53.550;10.048;2022-10-17T00:37:09;4.53;;;4.13;;
1134;SDS011;556;53.550;10.048;2022-10-17T00:39:37;4.23;;;4.03;;
1134;SDS011;556;53.550;10.048;2022-10-17T00:42:04;4.63;;;4.43;;
1134;SDS011;556;53.550;10.048;2022-10-17T00:47:30;4.27;;;4.07;;
1134;SDS011;556;53.550;10.048;2022-10-17T00:49:59;3.93;;;3.73;;
1134;SDS011;556;53.550;10.048;2022-10-17T00:52:27;4.13;;;3.93;;
1134;SDS011;556;53.550;10.048;2022-10-17T00:55:00;4.50;;;4.30;;
1134;SDS011;556;53.550;10.048;2022-10-17T00:57:33;4.93;;;4.70;;
1134;SDS011;556;53.550;10.048;2022-10-17T01:00:02;4.03;;;3.83;;
1134;SDS011;556;53.550;10.048;2022-10-17T01:02:33;5.50;;;5.00;;
1134;SDS011;556;53.550;10.048;2022-10-17T01:05:01;4.17;;;3.93;;
1134;SDS011;556;53.550;10.048;2022-10-17T01:07:29;4.90;;;4.50;;
1134;SDS011;556;53.550;10.048;2022-10-17T01:09:57;5.07;;;4.77;;
1134;SDS011;556;53.550;10.048;2022-10-17T01:12:27;4.47;;;4.27;;
1134;SDS011;556;53.550;10.048;2022-10-17T01:15:04;4.30;;;4.20;;
1134;SDS011;556;53.550;10.048;2022-10-17T01:17:39;4.27;;;4.03;;
1134;SDS011;556;53.550;10.048;2022-10-17T01:20:29;4.07;;;3.87;;
1134;SDS011;556;53.550;10.048;2022-10-17T01:23:26;5.50;;;4.97;;
1134;SDS011;556;53.550;10.048;2022-10-17T01:26:13;5.23;;;4.50;;
1134;SDS011;556;53.550;10.048;2022-10-17T01:28:54;3.83;;;3.63;;
1134;SDS011;556;53.550;10.048;2022-10-17T01:31:46;5.50;;;5.10;;
1134;SDS011;556;53.550;10.048;2022-10-17T01:34:23;3.57;;;3.47;;
1134;SDS011;556;53.550;10.048;2022-10-17T01:36:58;3.63;;;3.40;;
1134;SDS011;556;53.550;10.048;2022-10-17T01:39:40;3.43;;;3.23;;
1134;SDS011;556;53.550;10.048;2022-10-17T01:42:14;4.00;;;3.80;;
1134;SDS011;556;53.550;10.048;2022-10-17T01:44:48;13.10;;;3.53;;
1134;SDS011;556;53.550;10.048;2022-10-17T01:47:23;4.87;;;4.50;;
1134;SDS011;556;53.550;10.048;2022-10-17T01:49:54;3.53;;;3.33;;
1134;SDS011;556;53.550;10.048;2022-10-17T01:52:24;3.47;;;3.30;;
1134;SDS011;556;53.550;10.048;2022-10-17T01:54:57;4.13;;;3.93;;
1134;SDS011;556;53.550;10.048;2022-10-17T01:57:34;5.67;;;5.17;;
1134;SDS011;556;53.550;10.048;2022-10-17T02:00:07;4.07;;;3.83;;
1134;SDS011;556;53.550;10.048;2022-10-17T02:02:42;3.30;;;3.20;;
1134;SDS011;556;53.550;10.048;2022-10-17T02:05:15;3.20;;;3.00;;
1134;SDS011;556;53.550;10.048;2022-10-17T02:07:44;4.27;;;4.03;;
1134;SDS011;556;53.550;10.048;2022-10-17T02:10:14;3.27;;;2.97;;
1134;SDS011;556;53.550;10.048;2022-10-17T02:12:50;2.67;;;2.67;;
1134;SDS011;556;53.550;10.048;2022-10-17T02:18:22;3.00;;;2.80;;
1134;SDS011;556;53.550;10.048;2022-10-17T02:21:05;4.57;;;4.17;;
1134;SDS011;556;53.550;10.048;2022-10-17T02:23:38;3.80;;;3.43;;
1134;SDS011;556;53.550;10.048;2022-10-17T02:26:17;5.70;;;2.67;;
1134;SDS011;556;53.550;10.048;2022-10-17T02:28:50;2.87;;;2.77;;
1134;SDS011;556;53.550;10.048;2022-10-17T02:31:29;2.97;;;2.87;;
1134;SDS011;556;53.550;10.048;2022-10-17T02:34:02;3.17;;;2.97;;
1134;SDS011;556;53.550;10.048;2022-10-17T02:36:33;4.40;;;2.80;;
1134;SDS011;556;53.550;10.048;2022-10-17T02:39:04;2.60;;;2.50;;
1134;SDS011;556;53.550;10.048;2022-10-17T02:41:33;10.70;;;3.00;;
1134;SDS011;556;53.550;10.048;2022-10-17T02:44:03;3.30;;;3.00;;
1134;SDS011;556;53.550;10.048;2022-10-17T02:46:31;2.67;;;2.57;;
1134;SDS011;556;53.550;10.048;2022-10-17T02:49:04;3.70;;;3.50;;
1134;SDS011;556;53.550;10.048;2022-10-17T02:51:35;4.60;;;4.17;;
1134;SDS011;556;53.550;10.048;2022-10-17T02:54:11;2.93;;;2.83;;
1134;SDS011;556;53.550;10.048;2022-10-17T02:56:45;3.03;;;2.83;;
1134;SDS011;556;53.550;10.048;2022-10-17T02:59:16;2.87;;;2.73;;
1134;SDS011;556;53.550;10.048;2022-10-17T03:01:46;3.70;;;3.40;;
1134;SDS011;556;53.550;10.048;2022-10-17T03:04:15;3.40;;;3.20;;
1134;SDS011;556;53.550;10.048;2022-10-17T03:06:43;3.03;;;2.93;;
1134;SDS011;556;53.550;10.048;2022-10-17T03:09:11;2.70;;;2.60;;
1134;SDS011;556;53.550;10.048;2022-10-17T03:11:39;3.10;;;3.00;;
1134;SDS011;556;53.550;10.048;2022-10-17T03:14:07;9.03;;;3.13;;
1134;SDS011;556;53.550;10.048;2022-10-17T03:16:35;3.20;;;3.10;;
1134;SDS011;556;53.550;10.048;2022-10-17T03:19:03;3.87;;;3.57;;
1134;SDS011;556;53.550;10.048;2022-10-17T03:21:32;2.67;;;2.50;;
1134;SDS011;556;53.550;10.048;2022-10-17T03:24:01;3.13;;;2.93;;
1134;SDS011;556;53.550;10.048;2022-10-17T03:26:28;2.57;;;2.47;;
1134;SDS011;556;53.550;10.048;2022-10-17T03:28:56;2.67;;;2.57;;
1134;SDS011;556;53.550;10.048;2022-10-17T03:31:25;3.23;;;2.93;;
1134;SDS011;556;53.550;10.048;2022-10-17T03:33:54;3.67;;;3.27;;
1134;SDS011;556;53.550;10.048;2022-10-17T03:36:21;2.50;;;2.40;;
1134;SDS011;556;53.550;10.048;2022-10-17T03:38:51;3.37;;;3.23;;
1134;SDS011;556;53.550;10.048;2022-10-17T03:41:20;2.80;;;2.70;;
1134;SDS011;556;53.550;10.048;2022-10-17T03:43:47;3.33;;;3.13;;
1134;SDS011;556;53.550;10.048;2022-10-17T03:46:14;3.83;;;3.13;;
1134;SDS011;556;53.550;10.048;2022-10-17T03:48:42;3.37;;;3.17;;
1134;SDS011;556;53.550;10.048;2022-10-17T03:51:09;3.10;;;3.00;;
1134;SDS011;556;53.550;10.048;2022-10-17T03:53:44;2.63;;;2.53;;
1134;SDS011;556;53.550;10.048;2022-10-17T03:56:13;2.90;;;2.70;;
1134;SDS011;556;53.550;10.048;2022-10-17T03:58:43;2.70;;;2.60;;
1134;SDS011;556;53.550;10.048;2022-10-17T04:01:13;2.27;;;2.20;;
1134;SDS011;556;53.550;10.048;2022-10-17T04:03:41;2.57;;;2.37;;
1134;SDS011;556;53.550;10.048;2022-10-17T04:06:10;2.73;;;2.53;;
1134;SDS011;556;53.550;10.048;2022-10-17T04:08:40;2.50;;;2.40;;
1134;SDS011;556;53.550;10.048;2022-10-17T04:11:14;2.73;;;2.53;;
1134;SDS011;556;53.550;10.048;2022-10-17T04:13:43;2.53;;;2.43;;
1134;SDS011;556;53.550;10.048;2022-10-17T04:16:15;2.67;;;2.43;;
1134;SDS011;556;53.550;10.048;2022-10-17T04:18:56;3.43;;;2.60;;
1134;SDS011;556;53.550;10.048;2022-10-17T04:21:27;4.13;;;2.13;;
1134;SDS011;556;53.550;10.048;2022-10-17T04:23:57;2.60;;;2.50;;
1134;SDS011;556;53.550;10.048;2022-10-17T04:26:43;2.80;;;2.60;;
1134;SDS011;556;53.550;10.048;2022-10-17T04:29:10;4.53;;;2.63;;
1134;SDS011;556;53.550;10.048;2022-10-17T04:31:39;2.50;;;2.40;;
1134;SDS011;556;53.550;10.048;2022-10-17T04:34:20;2.43;;;2.30;;
1134;SDS011;556;53.550;10.048;2022-10-17T04:36:47;2.60;;;2.50;;
1134;SDS011;556;53.550;10.048;2022-10-17T04:39:16;3.27;;;2.07;;
1134;SDS011;556;53.550;10.048;2022-10-17T04:41:45;2.80;;;2.70;;
1134;SDS011;556;53.550;10.048;2022-10-17T04:44:13;2.50;;;2.40;;
1134;SDS011;556;53.550;10.048;2022-10-17T04:46:46;2.57;;;2.47;;
1134;SDS011;556;53.550;10.048;2022-10-17T04:49:13;2.33;;;2.13;;
1134;SDS011;556;53.550;10.048;2022-10-17T04:51:42;1.60;;;1.60;;
1134;SDS011;556;53.550;10.048;2022-10-17T04:54:29;4.40;;;4.00;;
1134;SDS011;556;53.550;10.048;2022-10-17T04:57:06;2.30;;;2.20;;
1134;SDS011;556;53.550;10.048;2022-10-17T04:59:33;7.47;;;2.30;;
1134;SDS011;556;53.550;10.048;2022-10-17T05:02:14;2.67;;;2.57;;
1134;SDS011;556;53.550;10.048;2022-10-17T05:04:41;2.10;;;2.00;;
1134;SDS011;556;53.550;10.048;2022-10-17T05:07:10;2.27;;;2.17;;
1134;SDS011;556;53.550;10.048;2022-10-17T05:09:42;2.53;;;2.43;;
1134;SDS011;556;53.550;10.048;2022-10-17T05:12:11;3.70;;;3.40;;
1134;SDS011;556;53.550;10.048;2022-10-17T05:14:41;2.87;;;2.60;;
1134;SDS011;556;53.550;10.048;2022-10-17T05:17:08;2.30;;;2.20;;
1134;SDS011;556;53.550;10.048;2022-10-17T05:19:37;2.60;;;2.40;;
1134;SDS011;556;53.550;10.048;2022-10-17T05:22:05;2.43;;;2.37;;
1134;SDS011;556;53.550;10.048;2022-10-17T05:24:32;2.97;;;2.87;;
1134;SDS011;556;53.550;10.048;2022-10-17T05:26:59;3.30;;;3.10;;
1134;SDS011;556;53.550;10.048;2022-10-17T05:29:28;1.97;;;1.87;;
1134;SDS011;556;53.550;10.048;2022-10-17T05:32:03;2.77;;;2.57;;
1134;SDS011;556;53.550;10.048;2022-10-17T05:34:32;2.13;;;2.00;;
1134;SDS011;556;53.550;10.048;2022-10-17T05:37:00;2.77;;;2.57;;
1134;SDS011;556;53.550;10.048;2022-10-17T05:39:27;3.37;;;2.93;;
1134;SDS011;556;53.550;10.048;2022-10-17T05:41:55;2.13;;;2.03;;
1134;SDS011;556;53.550;10.048;2022-10-17T05:44:23;2.13;;;2.03;;
1134;SDS011;556;53.550;10.048;2022-10-17T05:46:55;2.53;;;2.43;;
1134;SDS011;556;53.550;10.048;2022-10-17T05:49:22;2.53;;;2.43;;
1134;SDS011;556;53.550;10.048;2022-10-17T05:51:49;2.30;;;2.10;;
1134;SDS011;556;53.550;10.048;2022-10-17T05:54:17;1.93;;;1.83;;
1134;SDS011;556;53.550;10.048;2022-10-17T05:56:44;2.20;;;2.10;;
1134;SDS011;556;53.550;10.048;2022-10-17T05:59:11;3.03;;;2.93;;
1134;SDS011;556;53.550;10.048;2022-10-17T06:01:57;2.73;;;2.63;;
1134;SDS011;556;53.550;10.048;2022-10-17T06:04:24;5.10;;;2.80;;
1134;SDS011;556;53.550;10.048;2022-10-17T06:06:53;2.63;;;2.53;;
1134;SDS011;556;53.550;10.048;2022-10-17T06:09:21;5.87;;;2.67;;
1134;SDS011;556;53.550;10.048;2022-10-17T06:11:51;2.53;;;2.43;;
1134;SDS011;556;53.550;10.048;2022-10-17T06:14:18;2.20;;;2.10;;
1134;SDS011;556;53.550;10.048;2022-10-17T06:16:49;2.07;;;1.97;;
1134;SDS011;556;53.550;10.048;2022-10-17T06:19:17;2.83;;;2.47;;
1134;SDS011;556;53.550;10.048;2022-10-17T06:21:45;2.43;;;2.23;;
1134;SDS011;556;53.550;10.048;2022-10-17T06:24:17;3.07;;;2.60;;
1134;SDS011;556;53.550;10.048;2022-10-17T06:26:44;2.33;;;2.23;;
1134;SDS011;556;53.550;10.048;2022-10-17T06:29:13;3.67;;;3.30;;
1134;SDS011;556;53.550;10.048;2022-10-17T06:31:45;9.00;;;2.30;;
1134;SDS011;556;53.550;10.048;2022-10-17T06:34:12;2.37;;;2.23;;
1134;SDS011;556;53.550;10.048;2022-10-17T06:36:41;2.50;;;2.40;;
1134;SDS011;556;53.550;10.048;2022-10-17T06:39:08;1.77;;;1.67;;
1134;SDS011;556;53.550;10.048;2022-10-17T06:41:40;3.57;;;3.30;;
1134;SDS011;556;53.550;10.048;2022-10-17T06:44:09;3.37;;;3.03;;
1134;SDS011;556;53.550;10.048;2022-10-17T06:46:56;3.53;;;2.50;;
1134;SDS011;556;53.550;10.048;2022-10-17T06:49:23;2.53;;;2.43;;
1134;SDS011;556;53.550;10.048;2022-10-17T06:51:59;3.00;;;2.80;;
1134;SDS011;556;53.550;10.048;2022-10-17T06:54:38;2.53;;;2.33;;
1134;SDS011;556;53.550;10.048;2022-10-17T06:57:26;3.03;;;2.30;;
1134;SDS011;556;53.550;10.048;2022-10-17T07:00:13;3.83;;;3.23;;
1134;SDS011;556;53.550;10.048;2022-10-17T07:02:46;2.67;;;2.50;;
1134;SDS011;556;53.550;10.048;2022-10-17T07:05:13;7.60;;;2.67;;
1134;SDS011;556;53.550;10.048;2022-10-17T07:07:42;6.03;;;3.07;;
1134;SDS011;556;53.550;10.048;2022-10-17T07:10:09;2.07;;;1.97;;
1134;SDS011;556;53.550;10.048;2022-10-17T07:12:36;3.73;;;3.13;;
1134;SDS011;556;53.550;10.048;2022-10-17T07:15:03;2.40;;;2.20;;
1134;SDS011;556;53.550;10.048;2022-10-17T07:17:31;9.47;;;6.53;;
1134;SDS011;556;53.550;10.048;2022-10-17T07:19:58;2.70;;;2.60;;
1134;SDS011;556;53.550;10.048;2022-10-17T07:22:25;2.87;;;2.77;;
1134;SDS011;556;53.550;10.048;2022-10-17T07:24:57;2.23;;;2.13;;
1134;SDS011;556;53.550;10.048;2022-10-17T07:27:43;9.30;;;3.37;;
1134;SDS011;556;53.550;10.048;2022-10-17T07:30:11;3.40;;;2.60;;
1134;SDS011;556;53.550;10.048;2022-10-17T07:32:40;2.17;;;2.07;;
1134;SDS011;556;53.550;10.048;2022-10-17T07:35:08;2.70;;;2.20;;
1134;SDS011;556;53.550;10.048;2022-10-17T07:37:35;5.33;;;2.90;;
1134;SDS011;556;53.550;10.048;2022-10-17T07:40:05;2.63;;;2.43;;
1134;SDS011;556;53.550;10.048;2022-10-17T07:42:35;5.87;;;3.70;;
1134;SDS011;556;53.550;10.048;2022-10-17T07:45:03;3.13;;;2.90;;
1134;SDS011;556;53.550;10.048;2022-10-17T07:47:31;4.90;;;2.80;;
1134;SDS011;556;53.550;10.048;2022-10-17T07:50:00;3.67;;;3.47;;
1134;SDS011;556;53.550;10.048;2022-10-17T07:52:27;3.30;;;3.00;;
1134;SDS011;556;53.550;10.048;2022-10-17T07:54:54;2.90;;;2.77;;
1134;SDS011;556;53.550;10.048;2022-10-17T07:57:23;10.80;;;2.10;;
1134;SDS011;556;53.550;10.048;2022-10-17T07:59:50;2.20;;;2.10;;
1134;SDS011;556;53.550;10.048;2022-10-17T08:02:20;7.50;;;3.30;;
1134;SDS011;556;53.550;10.048;2022-10-17T08:04:48;2.83;;;2.73;;
1134;SDS011;556;53.550;10.048;2022-10-17T08:07:15;17.17;;;2.93;;
1134;SDS011;556;53.550;10.048;2022-10-17T08:09:42;4.33;;;3.93;;
1134;SDS011;556;53.550;10.048;2022-10-17T08:12:09;3.07;;;2.87;;
1134;SDS011;556;53.550;10.048;2022-10-17T08:14:40;3.53;;;3.23;;
1134;SDS011;556;53.550;10.048;2022-10-17T08:17:08;3.47;;;3.20;;
1134;SDS011;556;53.550;10.048;2022-10-17T08:19:36;3.10;;;3.00;;
1134;SDS011;556;53.550;10.048;2022-10-17T08:22:04;4.10;;;2.97;;
1134;SDS011;556;53.550;10.048;2022-10-17T08:24:31;2.70;;;2.40;;
1134;SDS011;556;53.550;10.048;2022-10-17T08:26:59;3.23;;;3.03;;
1134;SDS011;556;53.550;10.048;2022-10-17T08:29:26;5.87;;;3.20;;
1134;SDS011;556;53.550;10.048;2022-10-17T08:31:54;7.13;;;3.33;;
1134;SDS011;556;53.550;10.048;2022-10-17T08:34:22;3.47;;;3.10;;
1134;SDS011;556;53.550;10.048;2022-10-17T08:36:49;3.07;;;2.87;;
1134;SDS011;556;53.550;10.048;2022-10-17T08:39:16;3.97;;;3.67;;
1134;SDS011;556;53.550;10.048;2022-10-17T08:41:46;3.30;;;3.00;;
1134;SDS011;556;53.550;10.048;2022-10-17T08:44:28;11.70;;;3.90;;
1134;SDS011;556;53.550;10.048;2022-10-17T08:47:04;3.27;;;3.07;;
1134;SDS011;556;53.550;10.048;2022-10-17T08:49:37;4.00;;;2.60;;
1134;SDS011;556;53.550;10.048;2022-10-17T08:52:14;5.67;;;4.80;;
1134;SDS011;556;53.550;10.048;2022-10-17T08:54:47;3.80;;;3.50;;
1134;SDS011;556;53.550;10.048;2022-10-17T08:57:16;4.13;;;3.67;;
1134;SDS011;556;53.550;10.048;2022-10-17T08:59:43;4.43;;;3.70;;
1134;SDS011;556;53.550;10.048;2022-10-17T09:02:20;3.63;;;3.33;;
1134;SDS011;556;53.550;10.048;2022-10-17T09:05:02;4.70;;;4.30;;
1134;SDS011;556;53.550;10.048;2022-10-17T09:07:52;3.43;;;3.30;;
1134;SDS011;556;53.550;10.048;2022-10-17T09:10:28;3.83;;;3.30;;
1134;SDS011;556;53.550;10.048;2022-10-17T09:13:05;12.03;;;3.60;;
1134;SDS011;556;53.550;10.048;2022-10-17T09:15:40;13.33;;;4.10;;
1134;SDS011;556;53.550;10.048;2022-10-17T09:18:16;3.70;;;3.20;;
1134;SDS011;556;53.550;10.048;2022-10-17T09:20:50;5.03;;;4.57;;
1134;SDS011;556;53.550;10.048;2022-10-17T09:23:20;3.30;;;3.10;;
1134;SDS011;556;53.550;10.048;2022-10-17T09:25:51;3.73;;;3.53;;
1134;SDS011;556;53.550;10.048;2022-10-17T09:28:21;3.40;;;3.20;;
1134;SDS011;556;53.550;10.048;2022-10-17T09:30:53;4.30;;;4.00;;
1134;SDS011;556;53.550;10.048;2022-10-17T09:33:25;5.57;;;4.40;;
1134;SDS011;556;53.550;10.048;2022-10-17T09:35:55;3.83;;;3.63;;
1134;SDS011;556;53.550;10.048;2022-10-17T09:38:24;4.20;;;4.00;;
1134;SDS011;556;53.550;10.048;2022-10-17T09:41:00;5.40;;;5.10;;
1134;SDS011;556;53.550;10.048;2022-10-17T09:43:28;5.00;;;4.70;;
1134;SDS011;556;53.550;10.048;2022-10-17T09:45:58;8.23;;;5.33;;
1134;SDS011;556;53.550;10.048;2022-10-17T09:48:35;6.47;;;5.80;;
1134;SDS011;556;53.550;10.048;2022-10-17T09:51:05;7.10;;;5.60;;
1134;SDS011;556;53.550;10.048;2022-10-17T09:53:35;4.90;;;4.60;;
1134;SDS011;556;53.550;10.048;2022-10-17T09:56:06;4.63;;;4.33;;
1134;SDS011;556;53.550;10.048;2022-10-17T09:58:40;4.50;;;4.30;;
1134;SDS011;556;53.550;10.048;2022-10-17T10:01:14;4.50;;;3.73;;
1134;SDS011;556;53.550;10.048;2022-10-17T10:03:44;5.93;;;5.43;;
1134;SDS011;556;53.550;10.048;2022-10-17T10:06:12;4.37;;;4.10;;
1134;SDS011;556;53.550;10.048;2022-10-17T10:08:47;4.13;;;3.93;;
1134;SDS011;556;53.550;10.048;2022-10-17T10:11:17;7.70;;;4.67;;
1134;SDS011;556;53.550;10.048;2022-10-17T10:13:46;4.80;;;4.10;;
1134;SDS011;556;53.550;10.048;2022-10-17T10:16:15;5.93;;;4.77;;
1134;SDS011;556;53.550;10.048;2022-10-17T10:18:46;4.60;;;4.30;;
1134;SDS011;556;53.550;10.048;2022-10-17T10:21:15;5.63;;;5.20;;
1134;SDS011;556;53.550;10.048;2022-10-17T10:23:44;4.80;;;4.40;;
1134;SDS011;556;53.550;10.048;2022-10-17T10:26:29;5.30;;;4.90;;
1134;SDS011;556;53.550;10.048;2022-10-17T10:29:02;5.43;;;5.13;;
1134;SDS011;556;53.550;10.048;2022-10-17T10:31:33;5.03;;;4.80;;
1134;SDS011;556;53.550;10.048;2022-10-17T10:34:09;5.63;;;4.90;;
1134;SDS011;556;53.550;10.048;2022-10-17T10:36:42;5.40;;;5.20;;
1134;SDS011;556;53.550;10.048;2022-10-17T10:39:26;6.50;;;6.10;;
1134;SDS011;556;53.550;10.048;2022-10-17T10:42:07;6.93;;;6.40;;
1134;SDS011;556;53.550;10.048;2022-10-17T10:44:43;5.00;;;4.80;;
1134;SDS011;556;53.550;10.048;2022-10-17T10:47:15;5.20;;;5.00;;
1134;SDS011;556;53.550;10.048;2022-10-17T10:49:46;5.40;;;5.10;;
1134;SDS011;556;53.550;10.048;2022-10-17T10:52:23;6.47;;;6.07;;
1134;SDS011;556;53.550;10.048;2022-10-17T10:54:58;4.97;;;4.77;;
1134;SDS011;556;53.550;10.048;2022-10-17T10:57:32;6.37;;;6.00;;
1134;SDS011;556;53.550;10.048;2022-10-17T11:00:03;6.20;;;5.90;;
1134;SDS011;556;53.550;10.048;2022-10-17T11:02:39;5.00;;;4.80;;
1134;SDS011;556;53.550;10.048;2022-10-17T11:05:15;6.17;;;5.93;;
1134;SDS011;556;53.550;10.048;2022-10-17T11:07:49;13.13;;;6.93;;
1134;SDS011;556;53.550;10.048;2022-10-17T11:10:22;6.27;;;5.97;;
1134;SDS011;556;53.550;10.048;2022-10-17T11:12:58;7.17;;;6.53;;
1134;SDS011;556;53.550;10.048;2022-10-17T11:15:33;6.60;;;6.30;;
1134;SDS011;556;53.550;10.048;2022-10-17T11:18:06;8.17;;;6.70;;
1134;SDS011;556;53.550;10.048;2022-10-17T11:20:41;7.70;;;6.80;;
1134;SDS011;556;53.550;10.048;2022-10-17T11:23:18;6.63;;;6.43;;
1134;SDS011;556;53.550;10.048;2022-10-17T11:25:50;8.00;;;7.40;;
1134;SDS011;556;53.550;10.048;2022-10-17T11:28:20;6.90;;;6.30;;
1134;SDS011;556;53.550;10.048;2022-10-17T11:30:52;6.20;;;5.90;;
1134;SDS011;556;53.550;10.048;2022-10-17T11:33:24;8.07;;;7.53;;
1134;SDS011;556;53.550;10.048;2022-10-17T11:35:58;8.30;;;7.57;;
1134;SDS011;556;53.550;10.048;2022-10-17T11:38:35;7.07;;;6.73;;
1134;SDS011;556;53.550;10.048;2022-10-17T11:41:08;9.47;;;8.77;;
1134;SDS011;556;53.550;10.048;2022-10-17T11:43:39;7.93;;;7.43;;
1134;SDS011;556;53.550;10.048;2022-10-17T11:46:15;8.53;;;7.93;;
1134;SDS011;556;53.550;10.048;2022-10-17T11:48:50;8.73;;;8.23;;
1134;SDS011;556;53.550;10.048;2022-10-17T11:51:25;8.67;;;7.40;;
1134;SDS011;556;53.550;10.048;2022-10-17T11:53:56;8.00;;;7.40;;
1134;SDS011;556;53.550;10.048;2022-10-17T11:56:28;11.63;;;10.53;;
1134;SDS011;556;53.550;10.048;2022-10-17T11:59:17;7.80;;;7.37;;
1134;SDS011;556;53.550;10.048;2022-10-17T12:02:08;8.50;;;7.90;;
1134;SDS011;556;53.550;10.048;2022-10-17T12:04:44;10.63;;;9.50;;
1134;SDS011;556;53.550;10.048;2022-10-17T12:07:21;8.03;;;7.70;;
1134;SDS011;556;53.550;10.048;2022-10-17T12:09:57;8.47;;;8.07;;
1134;SDS011;556;53.550;10.048;2022-10-17T12:12:31;7.50;;;7.20;;
1134;SDS011;556;53.550;10.048;2022-10-17T12:17:55;7.10;;;6.80;;
1134;SDS011;556;53.550;10.048;2022-10-17T12:20:26;9.53;;;8.20;;
1134;SDS011;556;53.550;10.048;2022-10-17T12:23:05;6.80;;;6.30;;
1134;SDS011;556;53.550;10.048;2022-10-17T12:25:48;6.30;;;6.00;;
1134;SDS011;556;53.550;10.048;2022-10-17T12:28:18;6.50;;;5.80;;
1134;SDS011;556;53.550;10.048;2022-10-17T12:30:52;6.00;;;5.70;;
1134;SDS011;556;53.550;10.048;2022-10-17T12:33:23;5.67;;;5.33;;
1134;SDS011;556;53.550;10.048;2022-10-17T12:42:43;8.40;;;6.23;;
1134;SDS011;556;53.550;10.048;2022-10-17T12:48:13;9.00;;;6.00;;
1134;SDS011;556;53.550;10.048;2022-10-17T12:51:18;5.60;;;5.27;;
1134;SDS011;556;53.550;10.048;2022-10-17T12:53:48;10.33;;;5.83;;
1134;SDS011;556;53.550;10.048;2022-10-17T12:56:29;5.97;;;5.47;;
1134;SDS011;556;53.550;10.048;2022-10-17T12:59:01;6.37;;;5.97;;
1134;SDS011;556;53.550;10.048;2022-10-17T13:01:35;6.27;;;5.77;;
1134;SDS011;556;53.550;10.048;2022-10-17T13:04:04;5.63;;;5.23;;
1134;SDS011;556;53.550;10.048;2022-10-17T13:06:35;5.03;;;4.67;;
1134;SDS011;556;53.550;10.048;2022-10-17T13:09:14;6.47;;;5.80;;
1134;SDS011;556;53.550;10.048;2022-10-17T13:11:47;5.77;;;5.27;;
1134;SDS011;556;53.550;10.048;2022-10-17T13:14:17;7.80;;;6.00;;
1134;SDS011;556;53.550;10.048;2022-10-17T13:16:49;8.10;;;5.77;;
1134;SDS011;556;53.550;10.048;2022-10-17T13:19:19;19.60;;;18.80;;
1134;SDS011;556;53.550;10.048;2022-10-17T13:21:48;29.27;;;27.80;;
1134;SDS011;556;53.550;10.048;2022-10-17T13:24:19;22.60;;;21.40;;
1134;SDS011;556;53.550;10.048;2022-10-17T13:26:47;19.97;;;18.27;;
1134;SDS011;556;53.550;10.048;2022-10-17T13:29:14;19.43;;;18.53;;
1134;SDS011;556;53.550;10.048;2022-10-17T13:31:44;17.00;;;16.00;;
1134;SDS011;556;53.550;10.048;2022-10-17T13:34:18;16.93;;;15.93;;
1134;SDS011;556;53.550;10.048;2022-10-17T13:36:46;17.93;;;16.30;;
1134;SDS011;556;53.550;10.048;2022-10-17T13:39:16;15.07;;;14.37;;
1134;SDS011;556;53.550;10.048;2022-10-17T13:41:47;14.63;;;13.67;;
1134;SDS011;556;53.550;10.048;2022-10-17T13:44:19;15.07;;;13.47;;
1134;SDS011;556;53.550;10.048;2022-10-17T13:46:48;11.60;;;11.10;;
1134;SDS011;556;53.550;10.048;2022-10-17T13:49:17;13.57;;;12.67;;
1134;SDS011;556;53.550;10.048;2022-10-17T13:51:48;13.00;;;12.10;;
1134;SDS011;556;53.550;10.048;2022-10-17T13:54:18;10.13;;;9.53;;
1134;SDS011;556;53.550;10.048;2022-10-17T13:56:56;10.63;;;10.03;;
1134;SDS011;556;53.550;10.048;2022-10-17T13:59:26;13.03;;;9.27;;
1134;SDS011;556;53.550;10.048;2022-10-17T14:01:57;9.50;;;8.70;;
1134;SDS011;556;53.550;10.048;2022-10-17T14:04:26;13.83;;;9.13;;
1134;SDS011;556;53.550;10.048;2022-10-17T14:06:54;9.47;;;8.77;;
1134;SDS011;556;53.550;10.048;2022-10-17T14:09:22;9.90;;;8.70;;
1134;SDS011;556;53.550;10.048;2022-10-17T14:11:58;8.37;;;7.80;;
1134;SDS011;556;53.550;10.048;2022-10-17T14:14:29;6.57;;;6.17;;
1134;SDS011;556;53.550;10.048;2022-10-17T14:16:56;7.90;;;7.23;;
1134;SDS011;556;53.550;10.048;2022-10-17T14:19:24;7.93;;;7.33;;
1134;SDS011;556;53.550;10.048;2022-10-17T14:21:53;8.10;;;7.57;;
1134;SDS011;556;53.550;10.048;2022-10-17T14:24:26;7.30;;;6.60;;
1134;SDS011;556;53.550;10.048;2022-10-17T14:26:56;8.90;;;8.00;;
1134;SDS011;556;53.550;10.048;2022-10-17T14:29:26;8.60;;;7.70;;
1134;SDS011;556;53.550;10.048;2022-10-17T14:31:59;6.77;;;6.20;;
1134;SDS011;556;53.550;10.048;2022-10-17T14:34:29;7.17;;;6.57;;
1134;SDS011;556;53.550;10.048;2022-10-17T14:36:59;8.00;;;7.20;;
1134;SDS011;556;53.550;10.048;2022-10-17T14:39:27;8.63;;;7.83;;
1134;SDS011;556;53.550;10.048;2022-10-17T14:41:55;6.47;;;5.80;;
1134;SDS011;556;53.550;10.048;2022-10-17T14:44:23;8.03;;;5.20;;
1134;SDS011;556;53.550;10.048;2022-10-17T14:46:54;7.90;;;7.20;;
1134;SDS011;556;53.550;10.048;2022-10-17T14:49:27;8.73;;;7.83;;
1134;SDS011;556;53.550;10.048;2022-10-17T14:54:54;6.13;;;5.47;;
1134;SDS011;556;53.550;10.048;2022-10-17T14:57:23;5.00;;;4.30;;
1134;SDS011;556;53.550;10.048;2022-10-17T14:59:53;6.60;;;5.97;;
1134;SDS011;556;53.550;10.048;2022-10-17T15:02:21;6.53;;;6.03;;
1134;SDS011;556;53.550;10.048;2022-10-17T15:04:50;13.73;;;7.83;;
1134;SDS011;556;53.550;10.048;2022-10-17T15:07:18;6.13;;;5.63;;
1134;SDS011;556;53.550;10.048;2022-10-17T15:09:46;11.97;;;5.47;;
1134;SDS011;556;53.550;10.048;2022-10-17T15:12:15;4.93;;;4.60;;
1134;SDS011;556;53.550;10.048;2022-10-17T15:14:44;6.53;;;5.90;;
1134;SDS011;556;53.550;10.048;2022-10-17T15:17:14;5.83;;;5.00;;
1134;SDS011;556;53.550;10.048;2022-10-17T15:19:43;6.57;;;5.97;;
1134;SDS011;556;53.550;10.048;2022-10-17T15:22:11;8.77;;;6.07;;
1134;SDS011;556;53.550;10.048;2022-10-17T15:24:40;6.83;;;6.23;;
1134;SDS011;556;53.550;10.048;2022-10-17T15:27:09;7.37;;;6.30;;
1134;SDS011;556;53.550;10.048;2022-10-17T15:29:40;6.63;;;5.17;;
1134;SDS011;556;53.550;10.048;2022-10-17T15:32:08;6.60;;;6.00;;
1134;SDS011;556;53.550;10.048;2022-10-17T15:34:35;6.90;;;6.13;;
1134;SDS011;556;53.550;10.048;2022-10-17T15:37:03;11.83;;;5.53;;
1134;SDS011;556;53.550;10.048;2022-10-17T15:39:32;6.40;;;5.87;;
1134;SDS011;556;53.550;10.048;2022-10-17T15:41:59;7.47;;;6.10;;
1134;SDS011;556;53.550;10.048;2022-10-17T15:44:27;6.13;;;5.50;;
1134;SDS011;556;53.550;10.048;2022-10-17T15:46:54;6.60;;;6.10;;
1134;SDS011;556;53.550;10.048;2022-10-17T15:49:21;6.43;;;5.83;;
1134;SDS011;556;53.550;10.048;2022-10-17T15:51:49;7.03;;;6.43;;
1134;SDS011;556;53.550;10.048;2022-10-17T15:54:16;7.00;;;5.53;;
1134;SDS011;556;53.550;10.048;2022-10-17T15:56:45;6.60;;;5.70;;
1134;SDS011;556;53.550;10.048;2022-10-17T15:59:19;6.03;;;5.53;;